createdAt,value
2023-04-24T00:01:38.141Z,12.25
2023-04-24T00:04:05.260Z,12.28
2023-04-24T00:06:34.935Z,12.30
2023-04-24T00:09:02.227Z,12.21
2023-04-24T00:11:29.455Z,12.24
2023-04-24T00:13:57.328Z,12.21
2023-04-24T00:16:24.450Z,12.29
2023-04-24T00:18:51.231Z,12.33
2023-04-24T00:21:18.888Z,12.36
2023-04-24T00:23:45.768Z,12.21
2023-04-24T00:26:12.903Z,12.27
2023-04-24T00:28:39.702Z,12.24
2023-04-24T00:31:06.677Z,12.23
2023-04-24T00:33:33.459Z,12.27
2023-04-24T00:36:00.341Z,12.29
2023-04-24T00:38:27.141Z,12.34
2023-04-24T00:40:55.282Z,12.23
2023-04-24T00:43:22.375Z,12.27
2023-04-24T00:45:49.905Z,12.14
2023-04-24T00:48:17.528Z,12.19
2023-04-24T00:50:44.632Z,12.15
2023-04-24T00:53:11.973Z,12.16
2023-04-24T00:55:38.827Z,12.20
2023-04-24T00:58:06.127Z,12.18
2023-04-24T01:00:32.898Z,12.22
2023-04-24T01:03:03.211Z,12.19
2023-04-24T01:05:30.062Z,12.11
2023-04-24T01:07:57.427Z,12.17
2023-04-24T01:10:24.669Z,12.18
2023-04-24T01:12:53.300Z,12.14
2023-04-24T01:15:20.218Z,12.12
2023-04-24T01:17:47.888Z,12.15
2023-04-24T01:20:15.875Z,12.18
2023-04-24T01:22:43.238Z,12.15
2023-04-24T01:25:10.047Z,12.09
2023-04-24T01:27:36.868Z,12.09
2023-04-24T01:30:06.580Z,12.17
2023-04-24T01:32:33.535Z,12.17
2023-04-24T01:35:00.720Z,12.15
2023-04-24T01:37:28.108Z,12.14
2023-04-24T01:39:55.134Z,12.13
2023-04-24T01:42:22.652Z,12.14
2023-04-24T01:44:49.576Z,12.13
2023-04-24T01:47:16.600Z,12.11
2023-04-24T01:49:43.710Z,12.16
2023-04-24T01:52:12.640Z,12.13
2023-04-24T01:54:39.402Z,12.14
2023-04-24T01:57:06.695Z,12.21
2023-04-24T01:59:34.621Z,12.17
2023-04-24T02:02:01.604Z,12.22
2023-04-24T02:04:28.516Z,12.19
2023-04-24T02:06:55.640Z,12.17
2023-04-24T02:09:22.470Z,12.18
2023-04-24T02:11:49.318Z,12.16
2023-04-24T02:14:16.143Z,12.16
2023-04-24T02:16:43.627Z,12.17
2023-04-24T02:19:10.727Z,12.16
2023-04-24T02:21:37.592Z,12.16
2023-04-24T02:24:04.484Z,12.17
2023-04-24T02:26:32.953Z,12.14
2023-04-24T02:28:59.819Z,12.17
2023-04-24T02:31:26.638Z,12.15
2023-04-24T02:33:53.444Z,12.17
2023-04-24T02:36:20.230Z,12.18
2023-04-24T02:38:48.926Z,12.20
2023-04-24T02:41:15.749Z,12.18
2023-04-24T02:43:43.169Z,12.16
2023-04-24T02:46:10.111Z,12.15
2023-04-24T02:48:37.006Z,12.15
2023-04-24T02:51:03.917Z,12.11
2023-04-24T02:53:31.782Z,12.09
2023-04-24T02:55:58.550Z,12.11
2023-04-24T02:58:26.318Z,12.09
2023-04-24T03:00:57.126Z,12.09
2023-04-24T03:03:24.112Z,11.94
2023-04-24T03:05:51.538Z,12.00
2023-04-24T03:08:18.810Z,12.02
2023-04-24T03:10:48.041Z,11.99
2023-04-24T03:13:16.825Z,11.98
2023-04-24T03:15:44.142Z,11.97
2023-04-24T03:18:11.154Z,12.04
2023-04-24T03:20:38.741Z,12.09
2023-04-24T03:23:05.656Z,12.18
2023-04-24T03:25:32.733Z,12.17
2023-04-24T03:27:59.674Z,12.12
2023-04-24T03:30:36.287Z,12.09
2023-04-24T03:33:04.337Z,12.09
2023-04-24T03:35:35.061Z,11.92
2023-04-24T03:38:05.953Z,11.91
2023-04-24T03:40:53.973Z,11.87
2023-04-24T03:43:36.852Z,11.83
2023-04-24T03:46:05.414Z,11.90
2023-04-24T03:48:36.389Z,11.90
2023-04-24T03:51:03.301Z,11.93
2023-04-24T03:53:31.735Z,12.00
2023-04-24T03:55:59.690Z,11.98
2023-04-24T03:58:27.565Z,11.97
2023-04-24T04:00:58.118Z,11.95
2023-04-24T04:03:50.585Z,11.94
2023-04-24T04:06:22.686Z,11.93
2023-04-24T04:08:51.274Z,11.88
2023-04-24T04:11:18.492Z,11.87
2023-04-24T04:13:46.817Z,11.90
2023-04-24T04:16:13.898Z,11.92
2023-04-24T04:18:40.759Z,11.93
2023-04-24T04:21:08.186Z,11.93
2023-04-24T04:23:35.264Z,11.95
2023-04-24T04:26:17.074Z,11.94
2023-04-24T04:28:56.684Z,11.94
2023-04-24T04:31:24.683Z,11.95
2023-04-24T04:33:52.291Z,11.95
2023-04-24T04:36:19.288Z,11.95
2023-04-24T04:38:51.308Z,11.97
2023-04-24T04:41:43.097Z,11.92
2023-04-24T04:44:11.058Z,11.92
2023-04-24T04:46:41.721Z,11.93
2023-04-24T04:49:29.683Z,11.94
2023-04-24T04:51:56.767Z,11.96
2023-04-24T04:54:28.471Z,11.98
2023-04-24T04:56:58.437Z,11.99
2023-04-24T04:59:25.505Z,11.98
2023-04-24T05:01:58.705Z,11.97
2023-04-24T05:04:25.910Z,11.97
2023-04-24T05:06:52.964Z,12.00
2023-04-24T05:09:21.315Z,11.95
2023-04-24T05:11:52.958Z,11.95
2023-04-24T05:14:20.266Z,11.97
2023-04-24T05:16:47.256Z,11.99
2023-04-24T05:19:17.070Z,12.01
2023-04-24T05:21:46.498Z,12.05
2023-04-24T05:24:13.399Z,12.05
2023-04-24T05:26:49.520Z,12.09
2023-04-24T05:29:20.579Z,11.98
2023-04-24T05:31:47.963Z,12.02
2023-04-24T05:34:17.221Z,12.06
2023-04-24T05:36:45.992Z,12.06
2023-04-24T05:39:12.896Z,12.09
2023-04-24T05:41:39.679Z,12.14
2023-04-24T05:44:06.494Z,12.17
2023-04-24T05:46:33.429Z,12.23
2023-04-24T05:49:00.280Z,12.26
2023-04-24T05:51:27.593Z,12.30
2023-04-24T05:53:54.807Z,12.28
2023-04-24T05:56:21.981Z,12.35
2023-04-24T05:58:49.523Z,12.44
2023-04-24T06:01:16.776Z,12.46
2023-04-24T06:03:47.399Z,12.48
2023-04-24T06:06:14.772Z,12.51
2023-04-24T06:08:43.659Z,12.53
2023-04-24T06:11:11.035Z,12.56
2023-04-24T06:13:39.195Z,12.58
2023-04-24T06:16:28.715Z,12.65
2023-04-24T06:19:01.695Z,12.72
2023-04-24T06:21:28.820Z,12.73
2023-04-24T06:23:57.265Z,12.68
2023-04-24T06:26:26.159Z,12.68
2023-04-24T06:28:54.896Z,12.73
2023-04-24T06:31:21.803Z,12.77
2023-04-24T06:33:50.255Z,12.79
2023-04-24T06:36:17.257Z,12.80
2023-04-24T06:38:44.094Z,12.81
2023-04-24T06:41:11.478Z,12.83
2023-04-24T06:43:38.235Z,12.82
2023-04-24T06:46:05.171Z,12.83
2023-04-24T06:48:31.970Z,12.86
2023-04-24T06:51:01.295Z,12.93
2023-04-24T06:53:28.650Z,12.97
2023-04-24T06:55:56.072Z,12.96
2023-04-24T06:58:22.834Z,13.00
2023-04-24T07:00:49.579Z,13.03
2023-04-24T07:03:16.551Z,13.05
2023-04-24T07:05:43.718Z,13.14
2023-04-24T07:08:12.581Z,13.01
2023-04-24T07:10:39.363Z,13.05
2023-04-24T07:13:06.415Z,13.18
2023-04-24T07:15:33.589Z,13.25
2023-04-24T07:18:01.658Z,13.25
2023-04-24T07:20:29.441Z,13.29
2023-04-24T07:22:56.392Z,13.19
2023-04-24T07:25:23.198Z,13.10
2023-04-24T07:27:50.295Z,13.08
2023-04-24T07:30:17.327Z,13.25
2023-04-24T07:32:44.207Z,13.35
2023-04-24T07:35:11.333Z,13.38
2023-04-24T07:37:38.183Z,13.28
2023-04-24T07:40:05.622Z,13.35
2023-04-24T07:42:32.352Z,13.42
2023-04-24T07:45:00.934Z,13.54
2023-04-24T07:47:28.132Z,13.63
2023-04-24T07:49:55.040Z,13.58
2023-04-24T07:52:21.842Z,13.54
2023-04-24T07:54:48.749Z,13.51
2023-04-24T07:57:15.777Z,13.59
2023-04-24T07:59:42.959Z,13.68
2023-04-24T08:02:10.959Z,13.70
2023-04-24T08:04:40.484Z,13.80
2023-04-24T08:07:07.275Z,13.95
2023-04-24T08:09:34.126Z,13.94
2023-04-24T08:12:01.032Z,14.04
2023-04-24T08:14:27.881Z,14.09
2023-04-24T08:16:56.550Z,14.18
2023-04-24T08:19:23.524Z,14.17
2023-04-24T08:21:50.311Z,14.21
2023-04-24T08:24:17.081Z,14.27
2023-04-24T08:26:43.974Z,14.26
2023-04-24T08:29:13.618Z,14.37
2023-04-24T08:31:40.523Z,14.45
2023-04-24T08:34:07.350Z,14.42
2023-04-24T08:36:46.013Z,14.41
2023-04-24T08:39:14.200Z,14.25
2023-04-24T08:41:44.212Z,14.32
2023-04-24T08:44:11.401Z,14.36
2023-04-24T08:46:38.663Z,14.46
2023-04-24T08:49:06.016Z,14.57
2023-04-24T08:51:32.889Z,14.59
2023-04-24T08:53:59.695Z,14.62
2023-04-24T08:56:27.033Z,14.65
2023-04-24T08:58:55.204Z,14.64
2023-04-24T09:01:22.380Z,14.64
2023-04-24T09:03:50.333Z,14.74
2023-04-24T09:06:19.068Z,14.81
2023-04-24T09:08:46.722Z,14.85
2023-04-24T09:11:13.526Z,14.93
2023-04-24T09:13:40.706Z,14.99
2023-04-24T09:16:07.511Z,14.97
2023-04-24T09:18:36.412Z,14.98
2023-04-24T09:21:06.096Z,14.86
2023-04-24T09:23:33.377Z,14.91
2023-04-24T09:26:02.093Z,15.03
2023-04-24T09:28:33.676Z,15.00
2023-04-24T09:31:10.618Z,15.05
2023-04-24T09:33:37.870Z,15.26
2023-04-24T09:36:05.270Z,15.27
2023-04-24T09:38:33.902Z,15.28
2023-04-24T09:41:04.239Z,15.30
2023-04-24T09:43:31.536Z,15.25
2023-04-24T09:45:59.962Z,15.19
2023-04-24T09:48:38.234Z,15.11
2023-04-24T09:51:08.408Z,15.15
2023-04-24T09:53:35.223Z,15.17
2023-04-24T09:56:13.593Z,15.15
2023-04-24T09:58:40.505Z,15.11
2023-04-24T10:01:07.366Z,15.13
2023-04-24T10:03:35.251Z,15.19
2023-04-24T10:06:10.431Z,15.22
2023-04-24T10:08:38.766Z,15.17
2023-04-24T10:11:05.804Z,15.17
2023-04-24T10:13:33.571Z,15.24
2023-04-24T10:16:02.188Z,15.19
2023-04-24T10:18:29.377Z,15.23
2023-04-24T10:20:56.315Z,15.21
2023-04-24T10:23:24.353Z,15.26
2023-04-24T10:25:52.231Z,15.35
2023-04-24T10:28:20.294Z,15.39
2023-04-24T10:30:47.126Z,15.47
2023-04-24T10:33:15.049Z,15.48
2023-04-24T10:35:44.237Z,15.48
2023-04-24T10:38:13.785Z,15.47
2023-04-24T10:40:40.791Z,15.46
2023-04-24T10:43:10.794Z,15.36
2023-04-24T10:45:38.614Z,15.37
2023-04-24T10:48:11.941Z,15.42
2023-04-24T10:50:47.613Z,15.44
2023-04-24T10:53:20.398Z,15.47
2023-04-24T10:55:50.322Z,15.51
2023-04-24T10:58:18.218Z,15.50
2023-04-24T11:00:46.283Z,15.47
2023-04-24T11:03:28.070Z,15.39
2023-04-24T11:05:57.491Z,15.28
2023-04-24T11:08:31.685Z,15.27
2023-04-24T11:11:01.251Z,15.25
2023-04-24T11:13:49.751Z,15.22
2023-04-24T11:16:22.836Z,15.21
2023-04-24T11:18:55.525Z,15.31
2023-04-24T11:21:23.695Z,15.37
2023-04-24T11:23:51.821Z,15.39
2023-04-24T11:26:25.588Z,15.43
2023-04-24T11:28:52.355Z,15.47
2023-04-24T11:31:43.261Z,15.52
2023-04-24T11:34:11.897Z,15.58
2023-04-24T11:36:39.012Z,15.60
2023-04-24T11:39:06.278Z,15.65
2023-04-24T11:41:34.717Z,15.71
2023-04-24T11:44:02.248Z,15.80
2023-04-24T11:46:31.106Z,15.81
2023-04-24T11:48:58.146Z,15.75
2023-04-24T11:51:30.679Z,15.84
2023-04-24T11:54:04.469Z,15.76
2023-04-24T11:56:31.535Z,15.73
2023-04-24T11:58:58.313Z,15.62
2023-04-24T12:01:25.136Z,15.55
2023-04-24T12:03:52.693Z,15.52
2023-04-24T12:06:20.588Z,15.40
2023-04-24T12:08:49.000Z,15.25
2023-04-24T12:11:19.136Z,15.04
2023-04-24T12:13:46.425Z,14.93
2023-04-24T12:16:13.970Z,14.86
2023-04-24T12:18:47.250Z,14.43
2023-04-24T12:21:21.326Z,14.61
2023-04-24T12:23:49.905Z,14.68
2023-04-24T12:26:20.504Z,14.77
2023-04-24T12:28:48.146Z,14.76
2023-04-24T12:31:15.030Z,15.01
2023-04-24T12:33:41.979Z,15.24
2023-04-24T12:36:11.428Z,15.63
2023-04-24T12:38:41.502Z,15.81
2023-04-24T12:41:11.014Z,15.91
2023-04-24T12:43:38.280Z,16.22
2023-04-24T12:46:06.084Z,16.59
2023-04-24T12:48:33.447Z,16.72
2023-04-24T12:51:02.771Z,16.87
2023-04-24T12:53:33.160Z,16.88
2023-04-24T12:55:59.922Z,16.93
2023-04-24T12:58:26.996Z,16.96
2023-04-24T13:00:53.901Z,16.81
2023-04-24T13:03:21.313Z,16.67
2023-04-24T13:05:48.423Z,16.63
2023-04-24T13:08:15.289Z,16.75
2023-04-24T13:10:42.353Z,16.83
2023-04-24T13:13:09.861Z,16.86
2023-04-24T13:15:36.810Z,16.88
2023-04-24T13:18:03.724Z,16.88
2023-04-24T13:20:30.706Z,16.53
2023-04-24T13:22:57.573Z,16.31
2023-04-24T13:25:24.801Z,16.15
2023-04-24T13:27:52.018Z,16.00
2023-04-24T13:30:18.933Z,16.11
2023-04-24T13:32:45.839Z,16.15
2023-04-24T13:35:12.783Z,16.45
2023-04-24T13:37:39.548Z,16.60
2023-04-24T13:40:07.331Z,16.58
2023-04-24T13:42:34.370Z,16.59
2023-04-24T13:45:05.955Z,16.74
2023-04-24T13:47:37.997Z,16.60
2023-04-24T13:50:05.249Z,16.43
2023-04-24T13:52:31.990Z,16.34
2023-04-24T13:54:58.785Z,16.25
2023-04-24T13:57:25.630Z,15.99
2023-04-24T13:59:52.441Z,15.76
2023-04-24T14:02:19.310Z,15.76
2023-04-24T14:04:46.340Z,16.09
2023-04-24T14:07:13.273Z,16.04
2023-04-24T14:09:40.005Z,15.93
2023-04-24T14:12:08.103Z,15.94
2023-04-24T14:14:34.923Z,16.22
2023-04-24T14:17:01.765Z,16.62
2023-04-24T14:19:28.611Z,16.94
2023-04-24T14:21:56.796Z,17.10
2023-04-24T14:24:23.566Z,17.55
2023-04-24T14:26:50.339Z,17.56
2023-04-24T14:29:17.955Z,17.61
2023-04-24T14:31:44.809Z,17.56
2023-04-24T14:34:11.788Z,17.74
2023-04-24T14:36:38.941Z,17.54
2023-04-24T14:39:08.423Z,17.50
2023-04-24T14:41:40.373Z,17.61
2023-04-24T14:44:07.570Z,17.61
2023-04-24T14:46:34.546Z,17.15
2023-04-24T14:49:01.360Z,17.33
2023-04-24T14:51:28.321Z,17.83
2023-04-24T14:53:55.627Z,17.96
2023-04-24T14:56:22.519Z,18.17
2023-04-24T14:58:49.294Z,18.07
2023-04-24T15:01:17.702Z,18.21
2023-04-24T15:03:45.329Z,18.24
2023-04-24T15:06:12.553Z,17.85
2023-04-24T15:08:39.673Z,17.61
2023-04-24T15:11:06.524Z,17.47
2023-04-24T15:13:33.313Z,17.46
2023-04-24T15:16:00.193Z,17.87
2023-04-24T15:18:28.802Z,17.88
2023-04-24T15:20:56.242Z,17.93
2023-04-24T15:23:22.977Z,18.13
2023-04-24T15:25:49.954Z,18.16
2023-04-24T15:28:17.446Z,17.75
2023-04-24T15:30:44.213Z,17.49
2023-04-24T15:33:11.188Z,17.65
2023-04-24T15:35:38.169Z,17.71
2023-04-24T15:38:05.382Z,17.14
2023-04-24T15:40:32.187Z,16.67
2023-04-24T15:42:59.085Z,16.42
2023-04-24T15:45:26.437Z,16.48
2023-04-24T15:47:53.270Z,16.82
2023-04-24T15:50:21.913Z,16.84
2023-04-24T15:52:48.746Z,16.62
2023-04-24T15:55:15.565Z,16.30
2023-04-24T15:57:43.176Z,15.95
2023-04-24T16:00:11.244Z,15.89
2023-04-24T16:02:41.255Z,15.81
2023-04-24T16:05:08.997Z,15.72
2023-04-24T16:07:39.018Z,15.59
2023-04-24T16:10:06.643Z,15.60
2023-04-24T16:12:33.512Z,15.56
2023-04-24T16:15:00.390Z,15.45
2023-04-24T16:17:27.177Z,15.55
2023-04-24T16:19:53.919Z,15.44
2023-04-24T16:22:20.677Z,15.40
2023-04-24T16:24:48.256Z,15.34
2023-04-24T16:27:15.929Z,15.31
2023-04-24T16:29:42.808Z,15.21
2023-04-24T16:32:10.946Z,15.14
2023-04-24T16:34:37.785Z,14.98
2023-04-24T16:37:05.700Z,14.99
2023-04-24T16:39:32.565Z,14.94
2023-04-24T16:42:00.422Z,14.93
2023-04-24T16:44:28.218Z,14.93
2023-04-24T16:46:55.044Z,14.86
2023-04-24T16:49:23.910Z,14.84
2023-04-24T16:51:51.112Z,14.81
2023-04-24T16:54:17.925Z,14.74
2023-04-24T16:56:44.677Z,14.62
2023-04-24T16:59:11.618Z,14.13
2023-04-24T17:01:38.572Z,13.71
2023-04-24T17:04:05.647Z,13.67
2023-04-24T17:06:32.548Z,13.52
2023-04-24T17:09:00.725Z,13.41
2023-04-24T17:11:29.870Z,13.38
2023-04-24T17:14:00.030Z,13.29
2023-04-24T17:16:27.278Z,13.18
2023-04-24T17:18:54.432Z,13.03
2023-04-24T17:21:21.424Z,12.88
2023-04-24T17:23:48.237Z,13.13
2023-04-24T17:26:15.060Z,13.21
2023-04-24T17:28:42.017Z,13.11
2023-04-24T17:31:09.098Z,12.82
2023-04-24T17:33:35.976Z,12.52
2023-04-24T17:36:02.876Z,12.53
2023-04-24T17:38:30.206Z,12.49
2023-04-24T17:40:57.375Z,12.38
2023-04-24T17:43:24.730Z,12.20
2023-04-24T17:45:53.141Z,12.07
2023-04-24T17:48:20.173Z,11.98
2023-04-24T17:50:47.000Z,11.96
2023-04-24T17:53:14.209Z,12.09
2023-04-24T17:55:43.821Z,12.01
2023-04-24T17:58:10.897Z,11.89
2023-04-24T18:00:38.114Z,11.72
2023-04-24T18:03:06.558Z,11.82
2023-04-24T18:05:35.718Z,11.67
2023-04-24T18:08:02.883Z,11.76
2023-04-24T18:10:31.893Z,11.71
2023-04-24T18:12:59.311Z,11.71
2023-04-24T18:15:26.581Z,11.63
2023-04-24T18:17:56.455Z,11.49
2023-04-24T18:20:23.439Z,11.45
2023-04-24T18:22:50.281Z,11.42
2023-04-24T18:25:17.963Z,11.31
2023-04-24T18:27:44.728Z,11.29
2023-04-24T18:30:14.508Z,11.29
2023-04-24T18:32:42.550Z,11.13
2023-04-24T18:35:10.200Z,10.97
2023-04-24T18:37:37.044Z,10.89
2023-04-24T18:40:04.104Z,10.78
2023-04-24T18:42:31.042Z,10.86
2023-04-24T18:45:01.975Z,10.65
2023-04-24T18:47:31.390Z,10.53
2023-04-24T18:50:00.852Z,10.26
2023-04-24T18:52:27.754Z,10.19
2023-04-24T18:54:54.578Z,10.28
2023-04-24T18:57:21.686Z,10.20
2023-04-24T18:59:48.487Z,10.14
2023-04-24T19:02:16.243Z,9.97
2023-04-24T19:04:43.326Z,9.95
2023-04-24T19:07:10.338Z,9.75
2023-04-24T19:09:37.342Z,9.65
2023-04-24T19:12:04.486Z,9.55
2023-04-24T19:14:31.264Z,9.54
2023-04-24T19:16:58.521Z,9.59
2023-04-24T19:19:26.385Z,9.49
2023-04-24T19:21:53.489Z,9.37
2023-04-24T19:24:21.457Z,9.47
2023-04-24T19:26:48.296Z,9.31
2023-04-24T19:29:15.084Z,9.27
2023-04-24T19:31:41.991Z,9.26
2023-04-24T19:34:09.137Z,9.15
2023-04-24T19:36:36.704Z,9.19
2023-04-24T19:39:04.271Z,9.18
2023-04-24T19:41:31.447Z,9.25
2023-04-24T19:43:58.294Z,9.24
2023-04-24T19:46:27.695Z,9.21
2023-04-24T19:48:54.647Z,9.12
2023-04-24T19:51:21.636Z,9.11
2023-04-24T19:53:49.678Z,9.14
2023-04-24T19:56:16.686Z,9.17
2023-04-24T19:58:43.651Z,9.07
2023-04-24T20:01:10.677Z,9.18
2023-04-24T20:03:37.919Z,9.12
2023-04-24T20:06:04.980Z,9.11
2023-04-24T20:08:31.842Z,8.98
2023-04-24T20:10:58.879Z,8.93
2023-04-24T20:13:28.283Z,8.88
2023-04-24T20:15:55.250Z,8.83
2023-04-24T20:18:22.224Z,8.83
2023-04-24T20:20:49.293Z,8.93
2023-04-24T20:23:16.142Z,8.93
2023-04-24T20:25:42.878Z,8.92
2023-04-24T20:28:09.644Z,8.92
2023-04-24T20:30:38.933Z,8.85
2023-04-24T20:33:05.920Z,8.89
2023-04-24T20:35:32.709Z,8.82
2023-04-24T20:37:59.787Z,8.78
2023-04-24T20:40:28.251Z,8.75
2023-04-24T20:42:55.943Z,8.85
2023-04-24T20:45:24.348Z,8.88
2023-04-24T20:47:51.513Z,8.79
2023-04-24T20:50:19.003Z,8.81
2023-04-24T20:52:45.966Z,8.82
2023-04-24T20:55:12.888Z,8.86
2023-04-24T20:57:39.765Z,8.90
2023-04-24T21:00:08.930Z,9.04
2023-04-24T21:02:35.918Z,9.08
2023-04-24T21:05:03.549Z,8.81
2023-04-24T21:07:30.493Z,8.73
2023-04-24T21:09:57.278Z,8.67
2023-04-24T21:12:24.110Z,8.70
2023-04-24T21:14:51.487Z,8.75
2023-04-24T21:17:18.823Z,8.63
2023-04-24T21:19:45.624Z,8.56
2023-04-24T21:22:12.391Z,8.50
2023-04-24T21:24:39.165Z,8.63
2023-04-24T21:27:05.928Z,8.67
2023-04-24T21:29:33.025Z,8.71
2023-04-24T21:31:59.863Z,8.63
2023-04-24T21:34:26.697Z,8.60
2023-04-24T21:36:53.444Z,8.47
2023-04-24T21:39:20.244Z,8.56
2023-04-24T21:41:47.748Z,8.50
2023-04-24T21:44:14.635Z,8.59
2023-04-24T21:46:42.913Z,8.55
2023-04-24T21:49:09.846Z,8.61
2023-04-24T21:51:36.586Z,8.63
2023-04-24T21:54:03.976Z,8.64
2023-04-24T21:56:30.729Z,8.66
2023-04-24T21:58:57.755Z,8.63
2023-04-24T22:01:24.553Z,8.75
2023-04-24T22:03:51.714Z,8.63
2023-04-24T22:06:18.832Z,8.67
2023-04-24T22:08:47.861Z,8.64
2023-04-24T22:11:25.676Z,8.86
2023-04-24T22:13:54.356Z,9.02
2023-04-24T22:16:23.077Z,9.04
2023-04-24T22:18:50.539Z,8.92
2023-04-24T22:21:17.564Z,8.82
2023-04-24T22:23:44.523Z,8.63
2023-04-24T22:26:11.311Z,8.58
2023-04-24T22:28:38.200Z,8.74
2023-04-24T22:31:05.055Z,8.86
2023-04-24T22:33:31.824Z,8.82
2023-04-24T22:35:58.563Z,8.74
2023-04-24T22:38:25.389Z,8.55
2023-04-24T22:40:52.171Z,8.64
2023-04-24T22:43:19.110Z,8.68
2023-04-24T22:45:45.992Z,8.57
2023-04-24T22:48:12.767Z,8.67
2023-04-24T22:50:39.556Z,8.60
2023-04-24T22:53:06.438Z,8.55
2023-04-24T22:55:33.203Z,8.42
2023-04-24T22:58:00.989Z,8.42
2023-04-24T23:00:27.917Z,8.34
2023-04-24T23:02:54.828Z,8.30
2023-04-24T23:05:22.811Z,8.38
2023-04-24T23:07:49.615Z,8.22
2023-04-24T23:10:16.735Z,8.27
2023-04-24T23:12:43.903Z,8.32
2023-04-24T23:15:12.191Z,8.38
2023-04-24T23:17:39.272Z,8.26
2023-04-24T23:20:06.741Z,8.18
2023-04-24T23:22:34.009Z,8.17
2023-04-24T23:25:01.391Z,8.27
2023-04-24T23:27:28.153Z,8.29
2023-04-24T23:29:54.916Z,8.32
2023-04-24T23:32:21.793Z,8.31
2023-04-24T23:34:48.646Z,8.32
2023-04-24T23:37:17.310Z,8.50
2023-04-24T23:39:46.046Z,8.51
2023-04-24T23:42:12.821Z,8.65
2023-04-24T23:44:39.593Z,8.70
2023-04-24T23:47:06.575Z,8.85
2023-04-24T23:49:33.366Z,8.79
2023-04-24T23:52:00.236Z,8.74
2023-04-24T23:54:27.025Z,8.82
2023-04-24T23:56:53.752Z,8.83
2023-04-24T23:59:21.743Z,8.74
